﻿<?xml version="1.0" encoding="UTF-8" standalone="no"?>
<gpx xmlns="http://www.topografix.com/GPX/1/1" xmlns:gpxtpx="http://www.garmin.com/xmlschemas/TrackPointExtension/v1" xmlns:xsi="http://www.w3.org/2001/XMLSchema-instance" creator="Hribi.net" version="1.1" xsi:schemaLocation="http://www.topografix.com/GPX/1/1 http://www.topografix.com/GPX/1/1/gpx.xsd http://www.garmin.com/xmlschemas/TrackPointExtension/v1 http://www.garmin.com/xmlschemas/TrackPointExtensionv1.xsd">
  <metadata>
    <name>GPS sled</name>
    <desc>www.hribi.net</desc>
    <author>
      <name>hribi.net</name>
    </author>
    <link href="http://www.hribi.net">
      <text>Hribi.net</text>
    </link>
  </metadata>
  <trk>
    <trkseg>
      <trkpt lat="46.13379362" lon="14.56101454">
        <ele>346.62</ele>
        <time>2022-03-20T07:45:50Z</time>
      </trkpt>
      <trkpt lat="46.13397655" lon="14.56106987">
        <ele>366.52</ele>
        <time>2022-03-20T07:45:52Z</time>
      </trkpt>
      <trkpt lat="46.13406228" lon="14.5611296">
        <ele>352.13</ele>
        <time>2022-03-20T07:46:10Z</time>
      </trkpt>
      <trkpt lat="46.13407907" lon="14.56099407">
        <ele>349.39</ele>
        <time>2022-03-20T07:46:18Z</time>
      </trkpt>
      <trkpt lat="46.13402581" lon="14.56088603">
        <ele>348.95</ele>
        <time>2022-03-20T07:46:24Z</time>
      </trkpt>
      <trkpt lat="46.13396951" lon="14.56077254">
        <ele>349.01</ele>
        <time>2022-03-20T07:46:30Z</time>
      </trkpt>
      <trkpt lat="46.13394646" lon="14.56062641">
        <ele>349.35</ele>
        <time>2022-03-20T07:46:36Z</time>
      </trkpt>
      <trkpt lat="46.13392445" lon="14.56048053">
        <ele>349.83</ele>
        <time>2022-03-20T07:46:42Z</time>
      </trkpt>
      <trkpt lat="46.13391057" lon="14.56033669">
        <ele>349.57</ele>
        <time>2022-03-20T07:46:48Z</time>
      </trkpt>
      <trkpt lat="46.13388617" lon="14.56019705">
        <ele>351.28</ele>
        <time>2022-03-20T07:46:54Z</time>
      </trkpt>
      <trkpt lat="46.13381224" lon="14.56010712">
        <ele>348.73</ele>
        <time>2022-03-20T07:47:01Z</time>
      </trkpt>
      <trkpt lat="46.13372345" lon="14.56008365">
        <ele>349.66</ele>
        <time>2022-03-20T07:47:08Z</time>
      </trkpt>
      <trkpt lat="46.13362397" lon="14.56010734">
        <ele>354.05</ele>
        <time>2022-03-20T07:47:15Z</time>
      </trkpt>
      <trkpt lat="46.13353583" lon="14.5601348">
        <ele>356.49</ele>
        <time>2022-03-20T07:47:21Z</time>
      </trkpt>
      <trkpt lat="46.13344653" lon="14.5602002">
        <ele>355.72</ele>
        <time>2022-03-20T07:47:28Z</time>
      </trkpt>
      <trkpt lat="46.13335826" lon="14.56024452">
        <ele>355.72</ele>
        <time>2022-03-20T07:47:34Z</time>
      </trkpt>
      <trkpt lat="46.1332714" lon="14.56028369">
        <ele>355.46</ele>
        <time>2022-03-20T07:47:40Z</time>
      </trkpt>
      <trkpt lat="46.1331784" lon="14.56030351">
        <ele>356.04</ele>
        <time>2022-03-20T07:47:46Z</time>
      </trkpt>
      <trkpt lat="46.13307305" lon="14.56029244">
        <ele>357.75</ele>
        <time>2022-03-20T07:47:54Z</time>
      </trkpt>
      <trkpt lat="46.13296518" lon="14.56030197">
        <ele>358.57</ele>
        <time>2022-03-20T07:48:01Z</time>
      </trkpt>
      <trkpt lat="46.1328669" lon="14.56028879">
        <ele>359.44</ele>
        <time>2022-03-20T07:48:08Z</time>
      </trkpt>
      <trkpt lat="46.13276996" lon="14.56027408">
        <ele>361.03</ele>
        <time>2022-03-20T07:48:15Z</time>
      </trkpt>
      <trkpt lat="46.13266046" lon="14.56028066">
        <ele>363.35</ele>
        <time>2022-03-20T07:48:21Z</time>
      </trkpt>
      <trkpt lat="46.13256864" lon="14.56027963">
        <ele>364.4</ele>
        <time>2022-03-20T07:48:30Z</time>
      </trkpt>
      <trkpt lat="46.13247001" lon="14.56028564">
        <ele>367.54</ele>
        <time>2022-03-20T07:48:37Z</time>
      </trkpt>
      <trkpt lat="46.1323718" lon="14.5602816">
        <ele>369.62</ele>
        <time>2022-03-20T07:48:56Z</time>
      </trkpt>
      <trkpt lat="46.13229575" lon="14.5601995">
        <ele>370.57</ele>
        <time>2022-03-20T07:49:04Z</time>
      </trkpt>
      <trkpt lat="46.13221031" lon="14.56011582">
        <ele>372.76</ele>
        <time>2022-03-20T07:49:11Z</time>
      </trkpt>
      <trkpt lat="46.1322478" lon="14.55998405">
        <ele>376.96</ele>
        <time>2022-03-20T07:49:20Z</time>
      </trkpt>
      <trkpt lat="46.13236826" lon="14.55998146">
        <ele>376.7</ele>
        <time>2022-03-20T07:49:27Z</time>
      </trkpt>
      <trkpt lat="46.13246775" lon="14.55995681">
        <ele>379.46</ele>
        <time>2022-03-20T07:49:34Z</time>
      </trkpt>
      <trkpt lat="46.13255993" lon="14.55998255">
        <ele>380.63</ele>
        <time>2022-03-20T07:49:40Z</time>
      </trkpt>
      <trkpt lat="46.13265515" lon="14.55995234">
        <ele>379.88</ele>
        <time>2022-03-20T07:49:47Z</time>
      </trkpt>
      <trkpt lat="46.13272122" lon="14.55986088">
        <ele>381.75</ele>
        <time>2022-03-20T07:49:57Z</time>
      </trkpt>
      <trkpt lat="46.13270056" lon="14.55973307">
        <ele>382.11</ele>
        <time>2022-03-20T07:50:10Z</time>
      </trkpt>
      <trkpt lat="46.13273179" lon="14.55959777">
        <ele>386.42</ele>
        <time>2022-03-20T07:50:20Z</time>
      </trkpt>
      <trkpt lat="46.13280249" lon="14.55949986">
        <ele>391.45</ele>
        <time>2022-03-20T07:50:30Z</time>
      </trkpt>
      <trkpt lat="46.13289815" lon="14.55948491">
        <ele>393.9</ele>
        <time>2022-03-20T07:50:38Z</time>
      </trkpt>
      <trkpt lat="46.1329866" lon="14.5594586">
        <ele>395.59</ele>
        <time>2022-03-20T07:50:46Z</time>
      </trkpt>
      <trkpt lat="46.13303611" lon="14.55934849">
        <ele>395.97</ele>
        <time>2022-03-20T07:50:55Z</time>
      </trkpt>
      <trkpt lat="46.13313238" lon="14.55932583">
        <ele>396.57</ele>
        <time>2022-03-20T07:51:05Z</time>
      </trkpt>
      <trkpt lat="46.13320673" lon="14.55924965">
        <ele>398.43</ele>
        <time>2022-03-20T07:51:13Z</time>
      </trkpt>
      <trkpt lat="46.13327004" lon="14.55914971">
        <ele>399.49</ele>
        <time>2022-03-20T07:51:19Z</time>
      </trkpt>
      <trkpt lat="46.13331272" lon="14.55902835">
        <ele>402.03</ele>
        <time>2022-03-20T07:51:28Z</time>
      </trkpt>
      <trkpt lat="46.13339612" lon="14.55894381">
        <ele>404.49</ele>
        <time>2022-03-20T07:51:39Z</time>
      </trkpt>
      <trkpt lat="46.13347324" lon="14.55886221">
        <ele>403.88</ele>
        <time>2022-03-20T07:51:47Z</time>
      </trkpt>
      <trkpt lat="46.13353667" lon="14.55876867">
        <ele>405.35</ele>
        <time>2022-03-20T07:51:55Z</time>
      </trkpt>
      <trkpt lat="46.13362724" lon="14.55871432">
        <ele>407.84</ele>
        <time>2022-03-20T07:52:02Z</time>
      </trkpt>
      <trkpt lat="46.13370105" lon="14.55863302">
        <ele>410.68</ele>
        <time>2022-03-20T07:52:10Z</time>
      </trkpt>
      <trkpt lat="46.13377427" lon="14.55854665">
        <ele>414.73</ele>
        <time>2022-03-20T07:52:17Z</time>
      </trkpt>
      <trkpt lat="46.13386537" lon="14.55847972">
        <ele>417.04</ele>
        <time>2022-03-20T07:52:25Z</time>
      </trkpt>
      <trkpt lat="46.13395144" lon="14.55842538">
        <ele>417.82</ele>
        <time>2022-03-20T07:52:33Z</time>
      </trkpt>
      <trkpt lat="46.13403449" lon="14.55836148">
        <ele>419.84</ele>
        <time>2022-03-20T07:52:40Z</time>
      </trkpt>
      <trkpt lat="46.13412653" lon="14.55836126">
        <ele>422.26</ele>
        <time>2022-03-20T07:52:48Z</time>
      </trkpt>
      <trkpt lat="46.13419676" lon="14.55826214">
        <ele>422.26</ele>
        <time>2022-03-20T07:52:56Z</time>
      </trkpt>
      <trkpt lat="46.13424407" lon="14.5581446">
        <ele>422.25</ele>
        <time>2022-03-20T07:53:03Z</time>
      </trkpt>
      <trkpt lat="46.13431915" lon="14.55804857">
        <ele>422.49</ele>
        <time>2022-03-20T07:53:10Z</time>
      </trkpt>
      <trkpt lat="46.13440436" lon="14.5579941">
        <ele>424.42</ele>
        <time>2022-03-20T07:53:17Z</time>
      </trkpt>
      <trkpt lat="46.13450162" lon="14.55797194">
        <ele>425.42</ele>
        <time>2022-03-20T07:53:24Z</time>
      </trkpt>
      <trkpt lat="46.13459429" lon="14.5579554">
        <ele>423.89</ele>
        <time>2022-03-20T07:53:31Z</time>
      </trkpt>
      <trkpt lat="46.13468588" lon="14.55795569">
        <ele>423.72</ele>
        <time>2022-03-20T07:53:38Z</time>
      </trkpt>
      <trkpt lat="46.13479361" lon="14.5579424">
        <ele>422.36</ele>
        <time>2022-03-20T07:53:46Z</time>
      </trkpt>
      <trkpt lat="46.1348942" lon="14.55792488">
        <ele>420.63</ele>
        <time>2022-03-20T07:53:53Z</time>
      </trkpt>
      <trkpt lat="46.13497728" lon="14.55786798">
        <ele>419.89</ele>
        <time>2022-03-20T07:53:59Z</time>
      </trkpt>
      <trkpt lat="46.13505473" lon="14.55779726">
        <ele>419.66</ele>
        <time>2022-03-20T07:54:05Z</time>
      </trkpt>
      <trkpt lat="46.13511836" lon="14.5577028">
        <ele>419.35</ele>
        <time>2022-03-20T07:54:11Z</time>
      </trkpt>
      <trkpt lat="46.1351656" lon="14.55757613">
        <ele>418.19</ele>
        <time>2022-03-20T07:54:18Z</time>
      </trkpt>
      <trkpt lat="46.13518519" lon="14.55743221">
        <ele>416.64</ele>
        <time>2022-03-20T07:54:25Z</time>
      </trkpt>
      <trkpt lat="46.13522785" lon="14.55730787">
        <ele>418.05</ele>
        <time>2022-03-20T07:54:31Z</time>
      </trkpt>
      <trkpt lat="46.13528979" lon="14.55719116">
        <ele>417.8</ele>
        <time>2022-03-20T07:54:37Z</time>
      </trkpt>
      <trkpt lat="46.13537633" lon="14.55714853">
        <ele>416.9</ele>
        <time>2022-03-20T07:54:43Z</time>
      </trkpt>
      <trkpt lat="46.1354834" lon="14.55713861">
        <ele>417.54</ele>
        <time>2022-03-20T07:54:50Z</time>
      </trkpt>
      <trkpt lat="46.13558244" lon="14.55709191">
        <ele>415.85</ele>
        <time>2022-03-20T07:54:56Z</time>
      </trkpt>
      <trkpt lat="46.13567118" lon="14.55704814">
        <ele>412.8</ele>
        <time>2022-03-20T07:55:02Z</time>
      </trkpt>
      <trkpt lat="46.13575829" lon="14.5569881">
        <ele>412.59</ele>
        <time>2022-03-20T07:55:08Z</time>
      </trkpt>
      <trkpt lat="46.13583679" lon="14.55691995">
        <ele>412.05</ele>
        <time>2022-03-20T07:55:14Z</time>
      </trkpt>
      <trkpt lat="46.13594896" lon="14.5568705">
        <ele>411.43</ele>
        <time>2022-03-20T07:55:22Z</time>
      </trkpt>
      <trkpt lat="46.13604438" lon="14.55684653">
        <ele>410.3</ele>
        <time>2022-03-20T07:55:28Z</time>
      </trkpt>
      <trkpt lat="46.13612836" lon="14.55679442">
        <ele>408.62</ele>
        <time>2022-03-20T07:55:34Z</time>
      </trkpt>
      <trkpt lat="46.13622344" lon="14.55674538">
        <ele>407.18</ele>
        <time>2022-03-20T07:55:40Z</time>
      </trkpt>
      <trkpt lat="46.13631881" lon="14.5567471">
        <ele>407.45</ele>
        <time>2022-03-20T07:55:46Z</time>
      </trkpt>
      <trkpt lat="46.13641922" lon="14.55678104">
        <ele>407.29</ele>
        <time>2022-03-20T07:55:53Z</time>
      </trkpt>
      <trkpt lat="46.13651889" lon="14.55683137">
        <ele>406.61</ele>
        <time>2022-03-20T07:56:00Z</time>
      </trkpt>
      <trkpt lat="46.13661034" lon="14.55689103">
        <ele>404.73</ele>
        <time>2022-03-20T07:56:08Z</time>
      </trkpt>
      <trkpt lat="46.13650576" lon="14.55700463">
        <ele>405.37</ele>
        <time>2022-03-20T07:56:22Z</time>
      </trkpt>
      <trkpt lat="46.13657122" lon="14.55690626">
        <ele>400.82</ele>
        <time>2022-03-20T07:57:17Z</time>
      </trkpt>
      <trkpt lat="46.13666537" lon="14.55688306">
        <ele>400.53</ele>
        <time>2022-03-20T07:57:24Z</time>
      </trkpt>
      <trkpt lat="46.13676347" lon="14.55693985">
        <ele>399.63</ele>
        <time>2022-03-20T07:57:30Z</time>
      </trkpt>
      <trkpt lat="46.13685163" lon="14.55699481">
        <ele>400.15</ele>
        <time>2022-03-20T07:57:35Z</time>
      </trkpt>
      <trkpt lat="46.13693094" lon="14.55692782">
        <ele>398.25</ele>
        <time>2022-03-20T07:57:40Z</time>
      </trkpt>
      <trkpt lat="46.13702892" lon="14.55695584">
        <ele>393.77</ele>
        <time>2022-03-20T07:58:12Z</time>
      </trkpt>
      <trkpt lat="46.13712486" lon="14.55696795">
        <ele>396.2</ele>
        <time>2022-03-20T07:58:18Z</time>
      </trkpt>
      <trkpt lat="46.13722365" lon="14.55698302">
        <ele>397.25</ele>
        <time>2022-03-20T07:58:25Z</time>
      </trkpt>
      <trkpt lat="46.13731189" lon="14.55693026">
        <ele>395.28</ele>
        <time>2022-03-20T07:58:32Z</time>
      </trkpt>
      <trkpt lat="46.13738857" lon="14.55685716">
        <ele>394.81</ele>
        <time>2022-03-20T07:58:38Z</time>
      </trkpt>
      <trkpt lat="46.13747005" lon="14.55678274">
        <ele>394.51</ele>
        <time>2022-03-20T07:58:44Z</time>
      </trkpt>
      <trkpt lat="46.13756952" lon="14.55675429">
        <ele>394.23</ele>
        <time>2022-03-20T07:58:51Z</time>
      </trkpt>
      <trkpt lat="46.13767022" lon="14.55672836">
        <ele>395.54</ele>
        <time>2022-03-20T07:58:58Z</time>
      </trkpt>
      <trkpt lat="46.13776082" lon="14.55673349">
        <ele>398.17</ele>
        <time>2022-03-20T07:59:04Z</time>
      </trkpt>
      <trkpt lat="46.13783611" lon="14.55682421">
        <ele>397.45</ele>
        <time>2022-03-20T07:59:12Z</time>
      </trkpt>
      <trkpt lat="46.13791861" lon="14.55689816">
        <ele>396.77</ele>
        <time>2022-03-20T07:59:20Z</time>
      </trkpt>
      <trkpt lat="46.13799791" lon="14.55682251">
        <ele>397.12</ele>
        <time>2022-03-20T07:59:28Z</time>
      </trkpt>
      <trkpt lat="46.1380372" lon="14.55695197">
        <ele>397.17</ele>
        <time>2022-03-20T07:59:44Z</time>
      </trkpt>
      <trkpt lat="46.13812833" lon="14.55700084">
        <ele>393.57</ele>
        <time>2022-03-20T07:59:52Z</time>
      </trkpt>
      <trkpt lat="46.13822565" lon="14.55701181">
        <ele>394.39</ele>
        <time>2022-03-20T07:59:59Z</time>
      </trkpt>
      <trkpt lat="46.13832468" lon="14.55699054">
        <ele>397.34</ele>
        <time>2022-03-20T08:00:06Z</time>
      </trkpt>
      <trkpt lat="46.13840008" lon="14.55691643">
        <ele>397.25</ele>
        <time>2022-03-20T08:00:13Z</time>
      </trkpt>
      <trkpt lat="46.13848049" lon="14.55682929">
        <ele>397.62</ele>
        <time>2022-03-20T08:00:20Z</time>
      </trkpt>
      <trkpt lat="46.13856733" lon="14.55677727">
        <ele>396.75</ele>
        <time>2022-03-20T08:00:27Z</time>
      </trkpt>
      <trkpt lat="46.13864247" lon="14.55668679">
        <ele>394.46</ele>
        <time>2022-03-20T08:00:34Z</time>
      </trkpt>
      <trkpt lat="46.13872952" lon="14.55660537">
        <ele>394.5</ele>
        <time>2022-03-20T08:00:41Z</time>
      </trkpt>
      <trkpt lat="46.13882107" lon="14.55658222">
        <ele>393.24</ele>
        <time>2022-03-20T08:00:47Z</time>
      </trkpt>
      <trkpt lat="46.13888354" lon="14.55647937">
        <ele>392.05</ele>
        <time>2022-03-20T08:00:53Z</time>
      </trkpt>
      <trkpt lat="46.13896367" lon="14.55638386">
        <ele>392.27</ele>
        <time>2022-03-20T08:01:00Z</time>
      </trkpt>
      <trkpt lat="46.13903309" lon="14.55629631">
        <ele>392.43</ele>
        <time>2022-03-20T08:01:06Z</time>
      </trkpt>
      <trkpt lat="46.13909535" lon="14.55620265">
        <ele>391.5</ele>
        <time>2022-03-20T08:01:12Z</time>
      </trkpt>
      <trkpt lat="46.1391552" lon="14.55610093">
        <ele>389.4</ele>
        <time>2022-03-20T08:01:18Z</time>
      </trkpt>
      <trkpt lat="46.13921891" lon="14.55598869">
        <ele>389.16</ele>
        <time>2022-03-20T08:01:25Z</time>
      </trkpt>
      <trkpt lat="46.1392867" lon="14.55587861">
        <ele>389.23</ele>
        <time>2022-03-20T08:01:32Z</time>
      </trkpt>
      <trkpt lat="46.13934026" lon="14.55576839">
        <ele>385.62</ele>
        <time>2022-03-20T08:01:38Z</time>
      </trkpt>
      <trkpt lat="46.13939626" lon="14.55565763">
        <ele>385.86</ele>
        <time>2022-03-20T08:01:44Z</time>
      </trkpt>
      <trkpt lat="46.13943747" lon="14.55552658">
        <ele>389.07</ele>
        <time>2022-03-20T08:01:51Z</time>
      </trkpt>
      <trkpt lat="46.13939124" lon="14.55539238">
        <ele>387.39</ele>
        <time>2022-03-20T08:01:58Z</time>
      </trkpt>
      <trkpt lat="46.13936227" lon="14.55525666">
        <ele>385.8</ele>
        <time>2022-03-20T08:02:05Z</time>
      </trkpt>
      <trkpt lat="46.13934793" lon="14.55511746">
        <ele>380.87</ele>
        <time>2022-03-20T08:02:12Z</time>
      </trkpt>
      <trkpt lat="46.13935065" lon="14.55498175">
        <ele>378.43</ele>
        <time>2022-03-20T08:02:19Z</time>
      </trkpt>
      <trkpt lat="46.13940429" lon="14.55486133">
        <ele>380.4</ele>
        <time>2022-03-20T08:02:25Z</time>
      </trkpt>
      <trkpt lat="46.13949678" lon="14.55480252">
        <ele>381.18</ele>
        <time>2022-03-20T08:02:31Z</time>
      </trkpt>
      <trkpt lat="46.13957761" lon="14.5547341">
        <ele>380.4</ele>
        <time>2022-03-20T08:02:37Z</time>
      </trkpt>
      <trkpt lat="46.13965477" lon="14.55465242">
        <ele>379.48</ele>
        <time>2022-03-20T08:02:43Z</time>
      </trkpt>
      <trkpt lat="46.13972421" lon="14.55456207">
        <ele>380.13</ele>
        <time>2022-03-20T08:02:49Z</time>
      </trkpt>
      <trkpt lat="46.13978032" lon="14.55445714">
        <ele>378.27</ele>
        <time>2022-03-20T08:02:55Z</time>
      </trkpt>
      <trkpt lat="46.13982752" lon="14.55433926">
        <ele>377.54</ele>
        <time>2022-03-20T08:03:01Z</time>
      </trkpt>
      <trkpt lat="46.13985021" lon="14.55419742">
        <ele>378.14</ele>
        <time>2022-03-20T08:03:08Z</time>
      </trkpt>
      <trkpt lat="46.1399225" lon="14.55406126">
        <ele>379.92</ele>
        <time>2022-03-20T08:03:16Z</time>
      </trkpt>
      <trkpt lat="46.139994" lon="14.55398255">
        <ele>379.49</ele>
        <time>2022-03-20T08:03:21Z</time>
      </trkpt>
      <trkpt lat="46.14007973" lon="14.55389442">
        <ele>382.71</ele>
        <time>2022-03-20T08:03:27Z</time>
      </trkpt>
      <trkpt lat="46.14015187" lon="14.55378954">
        <ele>386.23</ele>
        <time>2022-03-20T08:03:34Z</time>
      </trkpt>
      <trkpt lat="46.14018994" lon="14.55366755">
        <ele>386.95</ele>
        <time>2022-03-20T08:03:40Z</time>
      </trkpt>
      <trkpt lat="46.14025987" lon="14.55356519">
        <ele>385.68</ele>
        <time>2022-03-20T08:03:48Z</time>
      </trkpt>
      <trkpt lat="46.14035025" lon="14.55354167">
        <ele>387.45</ele>
        <time>2022-03-20T08:03:54Z</time>
      </trkpt>
      <trkpt lat="46.140462" lon="14.5535268">
        <ele>388.7</ele>
        <time>2022-03-20T08:04:02Z</time>
      </trkpt>
      <trkpt lat="46.14055733" lon="14.55353001">
        <ele>389.9</ele>
        <time>2022-03-20T08:04:09Z</time>
      </trkpt>
      <trkpt lat="46.1406199" lon="14.55362663">
        <ele>388.44</ele>
        <time>2022-03-20T08:04:15Z</time>
      </trkpt>
      <trkpt lat="46.14071239" lon="14.55361771">
        <ele>388.03</ele>
        <time>2022-03-20T08:04:22Z</time>
      </trkpt>
      <trkpt lat="46.14079164" lon="14.55355252">
        <ele>386.46</ele>
        <time>2022-03-20T08:04:28Z</time>
      </trkpt>
      <trkpt lat="46.14088693" lon="14.55349579">
        <ele>384.56</ele>
        <time>2022-03-20T08:04:35Z</time>
      </trkpt>
      <trkpt lat="46.14097298" lon="14.55337791">
        <ele>381.67</ele>
        <time>2022-03-20T08:04:43Z</time>
      </trkpt>
      <trkpt lat="46.14103685" lon="14.55327001">
        <ele>379.95</ele>
        <time>2022-03-20T08:04:50Z</time>
      </trkpt>
      <trkpt lat="46.14108614" lon="14.55315977">
        <ele>378.95</ele>
        <time>2022-03-20T08:04:57Z</time>
      </trkpt>
      <trkpt lat="46.14118182" lon="14.55311191">
        <ele>381.77</ele>
        <time>2022-03-20T08:05:05Z</time>
      </trkpt>
      <trkpt lat="46.14124638" lon="14.55302046">
        <ele>375.92</ele>
        <time>2022-03-20T08:05:13Z</time>
      </trkpt>
      <trkpt lat="46.14129695" lon="14.55289961">
        <ele>371.72</ele>
        <time>2022-03-20T08:05:22Z</time>
      </trkpt>
      <trkpt lat="46.14137996" lon="14.5528397">
        <ele>367.61</ele>
        <time>2022-03-20T08:05:34Z</time>
      </trkpt>
    </trkseg>
  </trk>
</gpx>
